sensor_id;sensor_type;location;lat;lon;timestamp;temperature;humidity
10175;DHT22;18221;38.704;0.152;2022-09-09T00:08:36;25.30;99.90
10175;DHT22;18221;38.704;0.152;2022-09-09T00:11:16;25.30;99.90
10175;DHT22;18221;38.704;0.152;2022-09-09T00:13:55;25.30;99.90
10175;DHT22;18221;38.704;0.152;2022-09-09T00:16:30;25.40;99.90
10175;DHT22;18221;38.704;0.152;2022-09-09T00:19:07;25.40;99.90
10175;DHT22;18221;38.704;0.152;2022-09-09T00:21:46;25.40;99.90
10175;DHT22;18221;38.704;0.152;2022-09-09T00:24:27;25.50;99.90
10175;DHT22;18221;38.704;0.152;2022-09-09T00:27:04;25.40;99.90
10175;DHT22;18221;38.704;0.152;2022-09-09T00:29:39;25.40;99.90
10175;DHT22;18221;38.704;0.152;2022-09-09T00:32:14;25.40;99.90
10175;DHT22;18221;38.704;0.152;2022-09-09T00:34:48;25.40;99.90
10175;DHT22;18221;38.704;0.152;2022-09-09T00:37:19;25.40;99.90
10175;DHT22;18221;38.704;0.152;2022-09-09T00:39:52;25.40;99.90
10175;DHT22;18221;38.704;0.152;2022-09-09T00:42:26;25.30;99.90
10175;DHT22;18221;38.704;0.152;2022-09-09T00:45:12;25.30;99.90
10175;DHT22;18221;38.704;0.152;2022-09-09T00:48:05;25.30;99.90
10175;DHT22;18221;38.704;0.152;2022-09-09T00:50:44;25.20;99.90
10175;DHT22;18221;38.704;0.152;2022-09-09T00:53:25;25.20;99.90
10175;DHT22;18221;38.704;0.152;2022-09-09T00:56:12;25.20;99.90
10175;DHT22;18221;38.704;0.152;2022-09-09T00:58:43;25.20;99.90
10175;DHT22;18221;38.704;0.152;2022-09-09T01:01:22;25.20;99.90
10175;DHT22;18221;38.704;0.152;2022-09-09T01:03:53;25.10;99.90
10175;DHT22;18221;38.704;0.152;2022-09-09T01:06:30;25.10;99.90
10175;DHT22;18221;38.704;0.152;2022-09-09T01:09:11;25.20;99.90
10175;DHT22;18221;38.704;0.152;2022-09-09T01:11:57;25.10;99.90
10175;DHT22;18221;38.704;0.152;2022-09-09T01:14:41;25.10;99.90
10175;DHT22;18221;38.704;0.152;2022-09-09T01:17:17;25.00;99.90
10175;DHT22;18221;38.704;0.152;2022-09-09T01:20:01;25.00;99.90
10175;DHT22;18221;38.704;0.152;2022-09-09T01:22:36;24.90;99.90
10175;DHT22;18221;38.704;0.152;2022-09-09T01:28:48;24.90;99.90
10175;DHT22;18221;38.704;0.152;2022-09-09T01:31:20;24.90;99.90
10175;DHT22;18221;38.704;0.152;2022-09-09T01:33:51;24.90;99.90
10175;DHT22;18221;38.704;0.152;2022-09-09T01:36:26;24.80;99.90
10175;DHT22;18221;38.704;0.152;2022-09-09T01:39:03;24.80;99.90
10175;DHT22;18221;38.704;0.152;2022-09-09T01:41:31;24.80;99.90
10175;DHT22;18221;38.704;0.152;2022-09-09T01:44:01;24.80;99.90
10175;DHT22;18221;38.704;0.152;2022-09-09T01:46:30;24.80;99.90
10175;DHT22;18221;38.704;0.152;2022-09-09T01:48:59;24.90;99.90
10175;DHT22;18221;38.704;0.152;2022-09-09T01:51:29;24.90;99.90
10175;DHT22;18221;38.704;0.152;2022-09-09T01:53:57;24.90;99.90
10175;DHT22;18221;38.704;0.152;2022-09-09T01:56:35;25.00;99.90
10175;DHT22;18221;38.704;0.152;2022-09-09T01:59:22;24.90;99.90
10175;DHT22;18221;38.704;0.152;2022-09-09T02:02:09;24.90;99.90
10175;DHT22;18221;38.704;0.152;2022-09-09T02:04:43;25.00;99.90
10175;DHT22;18221;38.704;0.152;2022-09-09T02:07:25;25.00;99.90
10175;DHT22;18221;38.704;0.152;2022-09-09T02:10:10;24.90;99.90
10175;DHT22;18221;38.704;0.152;2022-09-09T02:12:43;24.90;99.90
10175;DHT22;18221;38.704;0.152;2022-09-09T02:15:19;24.90;99.90
10175;DHT22;18221;38.704;0.152;2022-09-09T02:17:52;24.90;99.90
10175;DHT22;18221;38.704;0.152;2022-09-09T02:20:23;25.00;99.90
10175;DHT22;18221;38.704;0.152;2022-09-09T02:22:54;25.00;99.90
10175;DHT22;18221;38.704;0.152;2022-09-09T02:25:26;25.00;99.90
10175;DHT22;18221;38.704;0.152;2022-09-09T02:27:56;24.90;99.90
10175;DHT22;18221;38.704;0.152;2022-09-09T02:30:29;24.90;99.90
10175;DHT22;18221;38.704;0.152;2022-09-09T02:33:02;24.80;99.90
10175;DHT22;18221;38.704;0.152;2022-09-09T02:35:34;24.80;99.90
10175;DHT22;18221;38.704;0.152;2022-09-09T02:38:06;24.80;99.90
10175;DHT22;18221;38.704;0.152;2022-09-09T02:40:38;24.80;99.90
10175;DHT22;18221;38.704;0.152;2022-09-09T02:43:06;24.80;99.90
10175;DHT22;18221;38.704;0.152;2022-09-09T02:45:40;24.80;99.90
10175;DHT22;18221;38.704;0.152;2022-09-09T02:48:17;24.80;99.90
10175;DHT22;18221;38.704;0.152;2022-09-09T02:50:56;24.70;99.90
10175;DHT22;18221;38.704;0.152;2022-09-09T02:53:37;24.70;99.90
10175;DHT22;18221;38.704;0.152;2022-09-09T02:56:16;24.70;99.90
10175;DHT22;18221;38.704;0.152;2022-09-09T02:58:47;24.70;99.90
10175;DHT22;18221;38.704;0.152;2022-09-09T03:01:19;24.60;99.90
10175;DHT22;18221;38.704;0.152;2022-09-09T03:03:47;24.70;99.90
10175;DHT22;18221;38.704;0.152;2022-09-09T03:06:15;24.70;99.90
10175;DHT22;18221;38.704;0.152;2022-09-09T03:08:43;24.70;99.90
10175;DHT22;18221;38.704;0.152;2022-09-09T03:11:11;24.70;99.90
10175;DHT22;18221;38.704;0.152;2022-09-09T03:13:39;24.70;99.90
10175;DHT22;18221;38.704;0.152;2022-09-09T03:16:07;24.60;99.90
10175;DHT22;18221;38.704;0.152;2022-09-09T03:18:37;24.60;99.90
10175;DHT22;18221;38.704;0.152;2022-09-09T03:21:05;24.60;99.90
10175;DHT22;18221;38.704;0.152;2022-09-09T03:23:33;24.60;99.90
10175;DHT22;18221;38.704;0.152;2022-09-09T03:26:00;24.60;99.90
10175;DHT22;18221;38.704;0.152;2022-09-09T03:28:29;24.60;99.90
10175;DHT22;18221;38.704;0.152;2022-09-09T03:30:59;24.60;99.90
10175;DHT22;18221;38.704;0.152;2022-09-09T03:33:27;24.70;99.90
10175;DHT22;18221;38.704;0.152;2022-09-09T03:35:57;24.70;99.90
10175;DHT22;18221;38.704;0.152;2022-09-09T03:38:25;24.70;99.90
10175;DHT22;18221;38.704;0.152;2022-09-09T03:40:55;24.60;99.90
10175;DHT22;18221;38.704;0.152;2022-09-09T03:43:25;24.60;99.90
10175;DHT22;18221;38.704;0.152;2022-09-09T03:45:54;24.60;99.90
10175;DHT22;18221;38.704;0.152;2022-09-09T03:48:23;24.60;99.90
10175;DHT22;18221;38.704;0.152;2022-09-09T03:50:52;24.50;99.90
10175;DHT22;18221;38.704;0.152;2022-09-09T03:53:24;24.50;99.90
10175;DHT22;18221;38.704;0.152;2022-09-09T03:55:54;24.50;99.90
10175;DHT22;18221;38.704;0.152;2022-09-09T03:58:26;24.50;99.90
10175;DHT22;18221;38.704;0.152;2022-09-09T04:00:55;24.50;99.90
10175;DHT22;18221;38.704;0.152;2022-09-09T04:03:24;24.40;99.90
10175;DHT22;18221;38.704;0.152;2022-09-09T04:05:54;24.40;99.90
10175;DHT22;18221;38.704;0.152;2022-09-09T04:08:24;24.50;99.90
10175;DHT22;18221;38.704;0.152;2022-09-09T04:10:53;24.50;99.90
10175;DHT22;18221;38.704;0.152;2022-09-09T04:13:24;24.50;99.90
10175;DHT22;18221;38.704;0.152;2022-09-09T04:15:53;24.50;99.90
10175;DHT22;18221;38.704;0.152;2022-09-09T04:18:23;24.40;99.90
10175;DHT22;18221;38.704;0.152;2022-09-09T04:20:53;24.40;99.90
10175;DHT22;18221;38.704;0.152;2022-09-09T04:23:25;24.40;99.90
10175;DHT22;18221;38.704;0.152;2022-09-09T04:25:55;24.40;99.90
10175;DHT22;18221;38.704;0.152;2022-09-09T04:28:26;24.40;99.90
10175;DHT22;18221;38.704;0.152;2022-09-09T04:30:55;24.30;99.90
10175;DHT22;18221;38.704;0.152;2022-09-09T04:33:24;24.30;99.90
10175;DHT22;18221;38.704;0.152;2022-09-09T04:35:53;24.30;99.90
10175;DHT22;18221;38.704;0.152;2022-09-09T04:38:21;24.30;99.90
10175;DHT22;18221;38.704;0.152;2022-09-09T04:40:51;24.20;99.90
10175;DHT22;18221;38.704;0.152;2022-09-09T04:43:20;24.20;99.90
10175;DHT22;18221;38.704;0.152;2022-09-09T04:45:49;24.20;99.90
10175;DHT22;18221;38.704;0.152;2022-09-09T04:48:18;24.20;99.90
10175;DHT22;18221;38.704;0.152;2022-09-09T04:50:55;24.20;99.90
10175;DHT22;18221;38.704;0.152;2022-09-09T04:53:24;24.20;99.90
10175;DHT22;18221;38.704;0.152;2022-09-09T04:56:01;24.30;99.90
10175;DHT22;18221;38.704;0.152;2022-09-09T04:58:30;24.30;99.90
10175;DHT22;18221;38.704;0.152;2022-09-09T05:01:06;24.30;99.90
10175;DHT22;18221;38.704;0.152;2022-09-09T05:03:35;24.20;99.90
10175;DHT22;18221;38.704;0.152;2022-09-09T05:06:05;24.30;99.90
10175;DHT22;18221;38.704;0.152;2022-09-09T05:08:34;24.20;99.90
10175;DHT22;18221;38.704;0.152;2022-09-09T05:11:16;24.20;99.90
10175;DHT22;18221;38.704;0.152;2022-09-09T05:13:45;24.20;99.90
10175;DHT22;18221;38.704;0.152;2022-09-09T05:16:14;24.20;99.90
10175;DHT22;18221;38.704;0.152;2022-09-09T05:18:42;24.20;99.90
10175;DHT22;18221;38.704;0.152;2022-09-09T05:21:12;24.10;99.90
10175;DHT22;18221;38.704;0.152;2022-09-09T05:23:42;24.20;99.90
10175;DHT22;18221;38.704;0.152;2022-09-09T05:26:13;24.20;99.90
10175;DHT22;18221;38.704;0.152;2022-09-09T05:28:42;24.20;99.90
10175;DHT22;18221;38.704;0.152;2022-09-09T05:31:11;24.20;99.90
10175;DHT22;18221;38.704;0.152;2022-09-09T05:33:40;24.20;99.90
10175;DHT22;18221;38.704;0.152;2022-09-09T05:36:13;24.20;99.90
10175;DHT22;18221;38.704;0.152;2022-09-09T05:38:43;24.20;99.90
10175;DHT22;18221;38.704;0.152;2022-09-09T05:41:14;24.30;99.90
10175;DHT22;18221;38.704;0.152;2022-09-09T05:43:43;24.20;99.90
10175;DHT22;18221;38.704;0.152;2022-09-09T05:46:14;24.30;99.90
10175;DHT22;18221;38.704;0.152;2022-09-09T05:48:44;24.30;99.90
10175;DHT22;18221;38.704;0.152;2022-09-09T05:51:15;24.30;99.90
10175;DHT22;18221;38.704;0.152;2022-09-09T05:53:45;24.30;99.90
10175;DHT22;18221;38.704;0.152;2022-09-09T05:56:17;24.30;99.90
10175;DHT22;18221;38.704;0.152;2022-09-09T05:58:46;24.30;99.90
10175;DHT22;18221;38.704;0.152;2022-09-09T06:01:16;24.30;99.90
10175;DHT22;18221;38.704;0.152;2022-09-09T06:03:47;24.30;99.90
10175;DHT22;18221;38.704;0.152;2022-09-09T06:06:18;24.30;99.90
10175;DHT22;18221;38.704;0.152;2022-09-09T06:08:49;24.30;99.90
10175;DHT22;18221;38.704;0.152;2022-09-09T06:11:21;24.30;99.90
10175;DHT22;18221;38.704;0.152;2022-09-09T06:13:50;24.20;99.90
10175;DHT22;18221;38.704;0.152;2022-09-09T06:16:21;24.20;99.90
10175;DHT22;18221;38.704;0.152;2022-09-09T06:18:51;24.20;99.90
10175;DHT22;18221;38.704;0.152;2022-09-09T06:21:23;24.20;99.90
10175;DHT22;18221;38.704;0.152;2022-09-09T06:23:52;24.20;99.90
10175;DHT22;18221;38.704;0.152;2022-09-09T06:26:23;24.30;99.90
10175;DHT22;18221;38.704;0.152;2022-09-09T06:28:53;24.30;99.90
10175;DHT22;18221;38.704;0.152;2022-09-09T06:31:25;24.30;99.90
10175;DHT22;18221;38.704;0.152;2022-09-09T06:33:56;24.30;99.90
10175;DHT22;18221;38.704;0.152;2022-09-09T06:36:27;24.40;99.90
10175;DHT22;18221;38.704;0.152;2022-09-09T06:38:57;24.40;99.90
10175;DHT22;18221;38.704;0.152;2022-09-09T06:41:28;24.50;99.90
10175;DHT22;18221;38.704;0.152;2022-09-09T06:43:57;24.50;99.90
10175;DHT22;18221;38.704;0.152;2022-09-09T06:46:28;24.50;99.90
10175;DHT22;18221;38.704;0.152;2022-09-09T06:48:58;24.50;99.90
10175;DHT22;18221;38.704;0.152;2022-09-09T06:51:27;24.60;99.90
10175;DHT22;18221;38.704;0.152;2022-09-09T06:53:58;24.60;99.90
10175;DHT22;18221;38.704;0.152;2022-09-09T06:56:30;24.60;99.90
10175;DHT22;18221;38.704;0.152;2022-09-09T06:59:00;24.70;99.90
10175;DHT22;18221;38.704;0.152;2022-09-09T07:01:32;24.80;99.90
10175;DHT22;18221;38.704;0.152;2022-09-09T07:04:01;24.90;99.90
10175;DHT22;18221;38.704;0.152;2022-09-09T07:06:31;25.00;99.90
10175;DHT22;18221;38.704;0.152;2022-09-09T07:09:03;25.10;99.90
10175;DHT22;18221;38.704;0.152;2022-09-09T07:11:36;25.10;99.90
10175;DHT22;18221;38.704;0.152;2022-09-09T07:14:07;25.30;99.90
10175;DHT22;18221;38.704;0.152;2022-09-09T07:16:35;25.40;99.90
10175;DHT22;18221;38.704;0.152;2022-09-09T07:19:03;25.60;99.90
10175;DHT22;18221;38.704;0.152;2022-09-09T07:21:32;25.80;99.90
10175;DHT22;18221;38.704;0.152;2022-09-09T07:24:01;25.90;99.90
10175;DHT22;18221;38.704;0.152;2022-09-09T07:26:34;26.00;99.90
10175;DHT22;18221;38.704;0.152;2022-09-09T07:29:02;26.10;99.90
10175;DHT22;18221;38.704;0.152;2022-09-09T07:31:32;26.20;99.90
10175;DHT22;18221;38.704;0.152;2022-09-09T07:34:02;26.30;99.90
10175;DHT22;18221;38.704;0.152;2022-09-09T07:36:32;26.30;99.90
10175;DHT22;18221;38.704;0.152;2022-09-09T07:39:03;26.30;99.90
10175;DHT22;18221;38.704;0.152;2022-09-09T07:41:35;26.40;99.90
10175;DHT22;18221;38.704;0.152;2022-09-09T07:44:06;26.40;99.90
10175;DHT22;18221;38.704;0.152;2022-09-09T07:46:37;26.40;99.90
10175;DHT22;18221;38.704;0.152;2022-09-09T07:49:07;26.50;99.90
10175;DHT22;18221;38.704;0.152;2022-09-09T07:51:37;26.50;99.90
10175;DHT22;18221;38.704;0.152;2022-09-09T07:54:08;26.50;99.90
10175;DHT22;18221;38.704;0.152;2022-09-09T07:56:39;26.50;99.90
10175;DHT22;18221;38.704;0.152;2022-09-09T07:59:07;26.60;99.90
10175;DHT22;18221;38.704;0.152;2022-09-09T08:01:38;26.70;99.90
10175;DHT22;18221;38.704;0.152;2022-09-09T08:04:10;26.70;99.90
10175;DHT22;18221;38.704;0.152;2022-09-09T08:06:42;26.70;99.90
10175;DHT22;18221;38.704;0.152;2022-09-09T08:09:12;26.80;99.90
10175;DHT22;18221;38.704;0.152;2022-09-09T08:11:43;26.90;99.90
10175;DHT22;18221;38.704;0.152;2022-09-09T08:14:12;26.90;99.90
10175;DHT22;18221;38.704;0.152;2022-09-09T08:16:42;27.10;99.90
10175;DHT22;18221;38.704;0.152;2022-09-09T08:19:12;27.10;99.90
10175;DHT22;18221;38.704;0.152;2022-09-09T08:21:42;27.20;99.90
10175;DHT22;18221;38.704;0.152;2022-09-09T08:24:17;27.20;99.90
10175;DHT22;18221;38.704;0.152;2022-09-09T08:26:47;27.30;99.90
10175;DHT22;18221;38.704;0.152;2022-09-09T08:29:16;27.30;99.90
10175;DHT22;18221;38.704;0.152;2022-09-09T08:31:45;27.30;99.90
10175;DHT22;18221;38.704;0.152;2022-09-09T08:34:15;27.30;99.90
10175;DHT22;18221;38.704;0.152;2022-09-09T08:36:45;27.20;99.90
10175;DHT22;18221;38.704;0.152;2022-09-09T08:39:15;27.30;99.90
10175;DHT22;18221;38.704;0.152;2022-09-09T08:42:21;27.30;99.90
10175;DHT22;18221;38.704;0.152;2022-09-09T08:48:09;27.30;99.90
10175;DHT22;18221;38.704;0.152;2022-09-09T08:50:51;27.30;99.90
10175;DHT22;18221;38.704;0.152;2022-09-09T08:53:22;27.30;99.90
10175;DHT22;18221;38.704;0.152;2022-09-09T08:55:57;27.30;99.90
10175;DHT22;18221;38.704;0.152;2022-09-09T08:58:30;27.30;99.90
10175;DHT22;18221;38.704;0.152;2022-09-09T09:01:30;27.30;99.90
10175;DHT22;18221;38.704;0.152;2022-09-09T09:04:19;27.40;99.90
10175;DHT22;18221;38.704;0.152;2022-09-09T09:07:06;27.30;99.90
10175;DHT22;18221;38.704;0.152;2022-09-09T09:09:50;27.30;99.90
10175;DHT22;18221;38.704;0.152;2022-09-09T09:12:27;27.30;99.90
10175;DHT22;18221;38.704;0.152;2022-09-09T09:15:00;27.30;99.90
10175;DHT22;18221;38.704;0.152;2022-09-09T09:17:29;27.30;99.90
10175;DHT22;18221;38.704;0.152;2022-09-09T09:19:59;27.40;99.90
10175;DHT22;18221;38.704;0.152;2022-09-09T09:22:33;27.40;99.90
10175;DHT22;18221;38.704;0.152;2022-09-09T09:25:14;27.50;99.90
10175;DHT22;18221;38.704;0.152;2022-09-09T09:27:52;27.50;99.90
10175;DHT22;18221;38.704;0.152;2022-09-09T09:30:31;27.70;99.90
10175;DHT22;18221;38.704;0.152;2022-09-09T09:33:08;27.70;99.90
10175;DHT22;18221;38.704;0.152;2022-09-09T09:35:43;27.80;99.90
10175;DHT22;18221;38.704;0.152;2022-09-09T09:38:17;27.80;99.90
10175;DHT22;18221;38.704;0.152;2022-09-09T09:40:50;27.80;99.90
10175;DHT22;18221;38.704;0.152;2022-09-09T09:43:24;27.90;99.90
10175;DHT22;18221;38.704;0.152;2022-09-09T09:45:57;27.90;99.90
10175;DHT22;18221;38.704;0.152;2022-09-09T09:48:25;27.90;99.90
10175;DHT22;18221;38.704;0.152;2022-09-09T09:50:56;28.00;99.90
10175;DHT22;18221;38.704;0.152;2022-09-09T09:53:29;28.00;99.90
10175;DHT22;18221;38.704;0.152;2022-09-09T09:56:00;28.00;99.90
10175;DHT22;18221;38.704;0.152;2022-09-09T09:58:31;28.10;99.90
10175;DHT22;18221;38.704;0.152;2022-09-09T10:01:03;28.20;99.90
10175;DHT22;18221;38.704;0.152;2022-09-09T10:03:32;28.10;99.90
10175;DHT22;18221;38.704;0.152;2022-09-09T10:06:03;28.20;99.90
10175;DHT22;18221;38.704;0.152;2022-09-09T10:08:43;28.30;99.90
10175;DHT22;18221;38.704;0.152;2022-09-09T10:11:25;28.30;99.90
10175;DHT22;18221;38.704;0.152;2022-09-09T10:14:08;28.40;99.90
10175;DHT22;18221;38.704;0.152;2022-09-09T10:16:56;28.40;99.90
10175;DHT22;18221;38.704;0.152;2022-09-09T10:19:36;28.40;99.90
10175;DHT22;18221;38.704;0.152;2022-09-09T10:22:22;28.50;99.90
10175;DHT22;18221;38.704;0.152;2022-09-09T10:25:17;28.50;99.90
10175;DHT22;18221;38.704;0.152;2022-09-09T10:28:20;28.60;99.90
10175;DHT22;18221;38.704;0.152;2022-09-09T10:31:20;28.50;99.90
10175;DHT22;18221;38.704;0.152;2022-09-09T10:34:04;28.60;99.90
10175;DHT22;18221;38.704;0.152;2022-09-09T10:36:47;28.70;99.90
10175;DHT22;18221;38.704;0.152;2022-09-09T10:39:32;28.60;99.90
10175;DHT22;18221;38.704;0.152;2022-09-09T10:42:08;28.60;99.90
10175;DHT22;18221;38.704;0.152;2022-09-09T10:44:57;28.60;99.90
10175;DHT22;18221;38.704;0.152;2022-09-09T10:47:47;28.60;99.90
10175;DHT22;18221;38.704;0.152;2022-09-09T10:50:41;28.60;99.90
10175;DHT22;18221;38.704;0.152;2022-09-09T10:53:22;28.80;99.90
10175;DHT22;18221;38.704;0.152;2022-09-09T10:56:04;28.80;99.90
10175;DHT22;18221;38.704;0.152;2022-09-09T10:58:40;28.80;99.90
10175;DHT22;18221;38.704;0.152;2022-09-09T11:01:17;28.80;99.90
10175;DHT22;18221;38.704;0.152;2022-09-09T11:03:54;28.90;99.90
10175;DHT22;18221;38.704;0.152;2022-09-09T11:06:31;28.80;99.90
10175;DHT22;18221;38.704;0.152;2022-09-09T11:09:05;28.90;99.90
10175;DHT22;18221;38.704;0.152;2022-09-09T11:11:44;29.00;99.90
10175;DHT22;18221;38.704;0.152;2022-09-09T11:14:26;29.00;99.90
10175;DHT22;18221;38.704;0.152;2022-09-09T11:17:02;28.90;99.90
10175;DHT22;18221;38.704;0.152;2022-09-09T11:19:35;28.90;99.90
10175;DHT22;18221;38.704;0.152;2022-09-09T11:22:12;29.00;99.90
10175;DHT22;18221;38.704;0.152;2022-09-09T11:24:47;29.10;99.90
10175;DHT22;18221;38.704;0.152;2022-09-09T11:27:25;29.10;99.90
10175;DHT22;18221;38.704;0.152;2022-09-09T11:30:15;29.20;99.90
10175;DHT22;18221;38.704;0.152;2022-09-09T11:33:15;29.20;99.90
10175;DHT22;18221;38.704;0.152;2022-09-09T11:36:11;29.20;99.90
10175;DHT22;18221;38.704;0.152;2022-09-09T11:39:01;29.10;99.90
10175;DHT22;18221;38.704;0.152;2022-09-09T11:41:47;29.20;99.90
10175;DHT22;18221;38.704;0.152;2022-09-09T11:44:21;29.30;99.90
10175;DHT22;18221;38.704;0.152;2022-09-09T11:46:55;29.40;99.90
10175;DHT22;18221;38.704;0.152;2022-09-09T11:49:42;29.30;99.90
10175;DHT22;18221;38.704;0.152;2022-09-09T11:52:12;29.30;99.90
10175;DHT22;18221;38.704;0.152;2022-09-09T11:54:48;29.30;99.90
10175;DHT22;18221;38.704;0.152;2022-09-09T11:57:26;29.40;99.90
10175;DHT22;18221;38.704;0.152;2022-09-09T12:00:02;29.40;99.90
10175;DHT22;18221;38.704;0.152;2022-09-09T12:02:31;29.40;99.90
10175;DHT22;18221;38.704;0.152;2022-09-09T12:05:04;29.50;99.90
10175;DHT22;18221;38.704;0.152;2022-09-09T12:07:37;29.60;99.90
10175;DHT22;18221;38.704;0.152;2022-09-09T12:10:23;29.60;99.90
10175;DHT22;18221;38.704;0.152;2022-09-09T12:12:54;29.70;99.90
10175;DHT22;18221;38.704;0.152;2022-09-09T12:15:26;29.60;99.90
10175;DHT22;18221;38.704;0.152;2022-09-09T12:17:57;29.60;99.90
10175;DHT22;18221;38.704;0.152;2022-09-09T12:20:33;29.70;99.90
10175;DHT22;18221;38.704;0.152;2022-09-09T12:26:29;29.70;99.90
10175;DHT22;18221;38.704;0.152;2022-09-09T12:29:13;29.70;99.90
10175;DHT22;18221;38.704;0.152;2022-09-09T12:31:56;29.60;99.90
10175;DHT22;18221;38.704;0.152;2022-09-09T12:34:36;29.70;99.90
10175;DHT22;18221;38.704;0.152;2022-09-09T12:37:15;29.60;99.90
10175;DHT22;18221;38.704;0.152;2022-09-09T12:39:53;29.70;99.90
10175;DHT22;18221;38.704;0.152;2022-09-09T12:42:25;29.80;99.90
10175;DHT22;18221;38.704;0.152;2022-09-09T12:44:55;29.90;99.90
10175;DHT22;18221;38.704;0.152;2022-09-09T12:47:32;29.90;99.90
10175;DHT22;18221;38.704;0.152;2022-09-09T12:50:16;29.90;99.90
10175;DHT22;18221;38.704;0.152;2022-09-09T12:52:48;30.00;99.90
10175;DHT22;18221;38.704;0.152;2022-09-09T12:55:20;29.90;99.90
10175;DHT22;18221;38.704;0.152;2022-09-09T12:57:52;29.90;99.90
10175;DHT22;18221;38.704;0.152;2022-09-09T13:00:22;29.80;99.90
10175;DHT22;18221;38.704;0.152;2022-09-09T13:02:54;29.90;99.90
10175;DHT22;18221;38.704;0.152;2022-09-09T13:05:25;29.80;99.90
10175;DHT22;18221;38.704;0.152;2022-09-09T13:08:01;30.00;99.90
10175;DHT22;18221;38.704;0.152;2022-09-09T13:10:33;29.90;99.90
10175;DHT22;18221;38.704;0.152;2022-09-09T13:13:13;29.90;99.90
10175;DHT22;18221;38.704;0.152;2022-09-09T13:15:50;29.90;99.90
10175;DHT22;18221;38.704;0.152;2022-09-09T13:18:23;30.10;99.90
10175;DHT22;18221;38.704;0.152;2022-09-09T13:20:54;30.10;99.90
10175;DHT22;18221;38.704;0.152;2022-09-09T13:23:27;30.20;99.90
10175;DHT22;18221;38.704;0.152;2022-09-09T13:25:58;30.20;99.90
10175;DHT22;18221;38.704;0.152;2022-09-09T13:28:29;30.10;99.90
10175;DHT22;18221;38.704;0.152;2022-09-09T13:30:59;30.10;99.90
10175;DHT22;18221;38.704;0.152;2022-09-09T13:33:32;30.10;99.90
10175;DHT22;18221;38.704;0.152;2022-09-09T13:36:04;30.10;99.90
10175;DHT22;18221;38.704;0.152;2022-09-09T13:38:36;30.10;99.90
10175;DHT22;18221;38.704;0.152;2022-09-09T13:41:07;30.00;99.90
10175;DHT22;18221;38.704;0.152;2022-09-09T13:43:58;30.00;99.90
10175;DHT22;18221;38.704;0.152;2022-09-09T13:46:42;30.10;99.90
10175;DHT22;18221;38.704;0.152;2022-09-09T13:49:20;30.10;99.90
10175;DHT22;18221;38.704;0.152;2022-09-09T13:52:03;30.10;99.90
10175;DHT22;18221;38.704;0.152;2022-09-09T13:54:34;30.20;99.90
10175;DHT22;18221;38.704;0.152;2022-09-09T13:57:14;30.40;99.90
10175;DHT22;18221;38.704;0.152;2022-09-09T13:59:45;30.30;99.90
10175;DHT22;18221;38.704;0.152;2022-09-09T14:02:28;30.30;99.90
10175;DHT22;18221;38.704;0.152;2022-09-09T14:04:56;30.30;99.90
10175;DHT22;18221;38.704;0.152;2022-09-09T14:07:32;30.30;99.90
10175;DHT22;18221;38.704;0.152;2022-09-09T14:10:05;30.40;99.90
10175;DHT22;18221;38.704;0.152;2022-09-09T14:12:34;30.30;99.90
10175;DHT22;18221;38.704;0.152;2022-09-09T14:15:06;30.40;99.90
10175;DHT22;18221;38.704;0.152;2022-09-09T14:17:36;30.50;99.90
10175;DHT22;18221;38.704;0.152;2022-09-09T14:20:23;30.50;99.90
10175;DHT22;18221;38.704;0.152;2022-09-09T14:22:51;30.50;99.90
10175;DHT22;18221;38.704;0.152;2022-09-09T14:25:19;30.40;99.90
10175;DHT22;18221;38.704;0.152;2022-09-09T14:27:52;30.60;99.90
10175;DHT22;18221;38.704;0.152;2022-09-09T14:30:21;30.60;99.90
10175;DHT22;18221;38.704;0.152;2022-09-09T14:32:49;30.70;99.90
10175;DHT22;18221;38.704;0.152;2022-09-09T14:35:17;30.70;99.90
10175;DHT22;18221;38.704;0.152;2022-09-09T14:37:45;30.80;99.90
10175;DHT22;18221;38.704;0.152;2022-09-09T14:40:12;30.60;99.90
10175;DHT22;18221;38.704;0.152;2022-09-09T14:42:42;30.50;99.90
10175;DHT22;18221;38.704;0.152;2022-09-09T14:45:11;30.60;99.90
10175;DHT22;18221;38.704;0.152;2022-09-09T14:47:40;30.60;99.90
10175;DHT22;18221;38.704;0.152;2022-09-09T14:50:08;30.50;99.90
10175;DHT22;18221;38.704;0.152;2022-09-09T14:52:38;30.60;99.90
10175;DHT22;18221;38.704;0.152;2022-09-09T14:55:07;30.60;99.90
10175;DHT22;18221;38.704;0.152;2022-09-09T14:57:35;30.60;99.90
10175;DHT22;18221;38.704;0.152;2022-09-09T15:00:05;30.50;99.90
10175;DHT22;18221;38.704;0.152;2022-09-09T15:02:34;30.50;99.90
10175;DHT22;18221;38.704;0.152;2022-09-09T15:05:04;30.60;99.90
10175;DHT22;18221;38.704;0.152;2022-09-09T15:07:32;30.60;99.90
10175;DHT22;18221;38.704;0.152;2022-09-09T15:10:00;30.60;99.90
10175;DHT22;18221;38.704;0.152;2022-09-09T15:12:28;30.80;99.90
10175;DHT22;18221;38.704;0.152;2022-09-09T15:14:56;30.50;99.90
10175;DHT22;18221;38.704;0.152;2022-09-09T15:17:24;30.50;99.90
10175;DHT22;18221;38.704;0.152;2022-09-09T15:19:53;30.50;99.90
10175;DHT22;18221;38.704;0.152;2022-09-09T15:22:23;30.40;99.90
10175;DHT22;18221;38.704;0.152;2022-09-09T15:24:51;30.30;99.90
10175;DHT22;18221;38.704;0.152;2022-09-09T15:27:19;30.40;99.90
10175;DHT22;18221;38.704;0.152;2022-09-09T15:29:47;30.40;99.90
10175;DHT22;18221;38.704;0.152;2022-09-09T15:32:14;30.40;99.90
10175;DHT22;18221;38.704;0.152;2022-09-09T15:34:42;30.30;99.90
10175;DHT22;18221;38.704;0.152;2022-09-09T15:37:10;30.30;99.90
10175;DHT22;18221;38.704;0.152;2022-09-09T15:39:41;30.20;99.90
10175;DHT22;18221;38.704;0.152;2022-09-09T15:42:09;30.10;99.90
10175;DHT22;18221;38.704;0.152;2022-09-09T15:44:40;30.20;99.90
10175;DHT22;18221;38.704;0.152;2022-09-09T15:47:11;30.10;99.90
10175;DHT22;18221;38.704;0.152;2022-09-09T15:49:41;30.00;99.90
10175;DHT22;18221;38.704;0.152;2022-09-09T15:52:10;30.10;99.90
10175;DHT22;18221;38.704;0.152;2022-09-09T15:54:38;30.00;99.90
10175;DHT22;18221;38.704;0.152;2022-09-09T15:57:10;30.00;99.90
10175;DHT22;18221;38.704;0.152;2022-09-09T15:59:39;30.00;99.90
10175;DHT22;18221;38.704;0.152;2022-09-09T16:02:08;30.10;99.90
10175;DHT22;18221;38.704;0.152;2022-09-09T16:04:37;30.10;99.90
10175;DHT22;18221;38.704;0.152;2022-09-09T16:07:05;30.00;99.90
10175;DHT22;18221;38.704;0.152;2022-09-09T16:09:35;29.90;99.90
10175;DHT22;18221;38.704;0.152;2022-09-09T16:12:04;30.00;99.90
10175;DHT22;18221;38.704;0.152;2022-09-09T16:14:35;29.80;99.90
10175;DHT22;18221;38.704;0.152;2022-09-09T16:17:05;29.80;99.90
10175;DHT22;18221;38.704;0.152;2022-09-09T16:19:33;29.90;99.90
10175;DHT22;18221;38.704;0.152;2022-09-09T16:22:02;29.90;99.90
10175;DHT22;18221;38.704;0.152;2022-09-09T16:24:32;29.80;99.90
10175;DHT22;18221;38.704;0.152;2022-09-09T16:27:00;29.80;99.90